Oklahoma City / Page Muni, OK

7:24 PM CST on November 22, 2019 (GMT -0600)
Oklahoma City / Page Muni

Weather History for KRCE - October, 2019

Change the Weather History Date:

Tuesday, October 22, 2019

  Actual Average (WUND) Record (WUND)
Temperature  
Mean Temperature 53 °F -  
Max Temperature 69 °F - - (-1)
Min Temperature 37 °F - - (-1)
Degree Days  
Heating Degree Days 12    
Growing Degree Days 3 (Base 50)    
Moisture  
Dew Point 26 °F    
Average Humidity 39    
Maximum Humidity 70    
Minimum Humidity 17    
Precipitation  
Precipitation 0.00 in - - ()
Sea Level Pressure  
Sea Level Pressure 30.13 in    
Wind  
Wind Speed 7 mph (WSW)    
Max Wind Speed 17 mph    
Max Gust Speed 24 mph    
Visibility 10 miles    
Events      
Averages and records for this station are not official NWS values.
T = Trace of Precipitation, MM = Missing Value Source: NWS Daily Summary

Daily Weather History Graph

Daily Weather History Graph

Search for Another Location

Airport or City:

Astronomy

Oct. 22, 2019 Rise Set
Actual Time 7:43 AM CDT 6:47 PM CDT
Civil Twilight 7:17 AM CDT 7:13 PM CDT
Nautical Twilight 6:47 AM CDT 7:42 PM CDT
Astronomical Twilight 6:18 AM CDT 8:12 PM CDT
Moon 1:12 AM CDT (10/22) 3:41 PM CDT (10/22)
Length of Visible Light 11h 55m
Length of Day
11h 03m
Last Quarter, 37% of the Moon is Illuminated
Oct 22
Last Quarter
Oct 27
New
Nov 4
First Quarter
Nov 12
Full
Nov 19
Last Quarter

Hourly Weather History & Observations

Time (CDT) Temp. Windchill Dew Point Humidity Pressure Visibility Wind Dir Wind Speed Gust Speed Precip Events Conditions
12:15 AM 50.0 °F - 26.6 °F 40% 30.09 in 10.0 mi WNW 5.8 mph - N/A   Unknown
12:55 AM 48.2 °F - 24.8 °F 40% 30.11 in 10.0 mi West 3.5 mph - N/A   Unknown
1:15 AM 48.2 °F - 24.8 °F 40% 30.11 in 10.0 mi Calm Calm - N/A   Unknown
1:35 AM 46.4 °F 44.3 °F 24.8 °F 43% 30.11 in 10.0 mi West 4.6 mph - N/A   Unknown
1:55 AM 46.4 °F 43.5 °F 24.8 °F 43% 30.11 in 10.0 mi WNW 5.8 mph - N/A   Unknown
2:15 AM 46.4 °F 44.3 °F 23.0 °F 40% 30.11 in 10.0 mi WNW 4.6 mph - N/A   Unknown
2:35 AM 46.4 °F 44.3 °F 23.0 °F 40% 30.12 in 10.0 mi WNW 4.6 mph - N/A   Unknown
2:55 AM 46.4 °F 43.5 °F 24.8 °F 43% 30.12 in 10.0 mi NW 5.8 mph - N/A   Unknown
3:15 AM 44.6 °F 42.2 °F 24.8 °F 46% 30.12 in 10.0 mi WNW 4.6 mph - N/A   Unknown
3:35 AM 41.0 °F 38.0 °F 26.6 °F 57% 30.13 in 10.0 mi West 4.6 mph - N/A   Unknown
3:55 AM 42.8 °F 38.6 °F 24.8 °F 49% 30.13 in 10.0 mi WSW 6.9 mph - N/A   Unknown
4:15 AM 39.2 °F 35.9 °F 26.6 °F 61% 30.14 in 10.0 mi WSW 4.6 mph - N/A   Unknown
4:35 AM 39.2 °F 35.0 °F 26.6 °F 61% 30.14 in 10.0 mi WSW 5.8 mph - N/A   Unknown
4:55 AM 39.2 °F 35.0 °F 26.6 °F 61% 30.14 in 10.0 mi WSW 5.8 mph - N/A   Unknown
5:15 AM 39.2 °F 35.0 °F 26.6 °F 61% 30.15 in 10.0 mi WSW 5.8 mph - N/A   Unknown
5:55 AM 41.0 °F 38.0 °F 26.6 °F 57% 30.15 in 10.0 mi NW 4.6 mph - N/A   Unknown
6:15 AM 41.0 °F 38.0 °F 26.6 °F 57% 30.16 in 10.0 mi West 4.6 mph - N/A   Unknown
6:35 AM 39.2 °F 35.9 °F 26.6 °F 61% 30.16 in 10.0 mi WNW 4.6 mph - N/A   Unknown
6:55 AM 37.4 °F 32.8 °F 28.4 °F 70% 30.16 in 10.0 mi SW 5.8 mph - N/A   Unknown
7:15 AM 37.4 °F 31.4 °F 26.6 °F 65% 30.17 in 10.0 mi SW 8.1 mph - N/A   Unknown
7:35 AM 37.4 °F 32.1 °F 26.6 °F 65% 30.18 in 10.0 mi SW 6.9 mph - N/A   Unknown
7:55 AM 37.4 °F 32.8 °F 28.4 °F 70% 30.18 in 10.0 mi WSW 5.8 mph - N/A   Unknown
8:15 AM 39.2 °F 34.2 °F 26.6 °F 61% 30.19 in 10.0 mi SW 6.9 mph - N/A   Unknown
8:35 AM 39.2 °F 35.0 °F 28.4 °F 65% 30.20 in 10.0 mi WSW 5.8 mph - N/A   Unknown
8:55 AM 42.8 °F 38.6 °F 30.2 °F 61% 30.21 in 10.0 mi WSW 6.9 mph - N/A   Unknown
9:15 AM 46.4 °F 43.5 °F 32.0 °F 57% 30.22 in 10.0 mi SW 5.8 mph - N/A   Unknown
9:35 AM 50.0 °F - 30.2 °F 47% 30.23 in 10.0 mi WSW 8.1 mph - N/A   Unknown
9:55 AM 51.8 °F - 28.4 °F 41% 30.23 in 10.0 mi West 8.1 mph - N/A   Unknown
10:15 AM 55.4 °F - 26.6 °F 33% 30.23 in 10.0 mi WSW 10.4 mph - N/A   Unknown
10:55 AM 59.0 °F - 24.8 °F 27% 30.22 in 10.0 mi West 12.7 mph - N/A   Unknown
11:15 AM 60.8 °F - 24.8 °F 25% 30.22 in 10.0 mi West 9.2 mph - N/A   Unknown
11:35 AM 62.6 °F - 24.8 °F 24% 30.23 in 10.0 mi West 11.5 mph - N/A   Unknown
11:55 AM 64.4 °F - 24.8 °F 22% 30.22 in 10.0 mi NW 10.4 mph - N/A   Unknown
12:35 PM 66.2 °F - 24.8 °F 21% 30.21 in 10.0 mi WNW 13.8 mph - N/A   Unknown
12:55 PM 66.2 °F - 23.0 °F 19% 30.20 in 10.0 mi West 15.0 mph 21.9 mph N/A   Unknown
1:15 PM 68.0 °F - 24.8 °F 20% 30.20 in 10.0 mi WNW 12.7 mph 19.6 mph N/A   Unknown
1:35 PM 68.0 °F - 24.8 °F 20% 30.19 in 10.0 mi West 12.7 mph 20.7 mph N/A   Unknown
1:55 PM 68.0 °F - 24.8 °F 20% 30.18 in 10.0 mi West 16.1 mph 21.9 mph N/A   Unknown
2:15 PM 68.0 °F - 24.8 °F 20% 30.17 in 10.0 mi WNW 9.2 mph 20.7 mph N/A   Unknown
2:35 PM 68.0 °F - 23.0 °F 18% 30.16 in 10.0 mi West 10.4 mph 19.6 mph N/A   Unknown
2:55 PM 68.0 °F - 24.8 °F 20% 30.15 in 10.0 mi West 11.5 mph 17.3 mph N/A   Unknown
3:15 PM 69.8 °F - 24.8 °F 18% 30.15 in 10.0 mi West 11.5 mph 20.7 mph N/A   Unknown
3:35 PM 69.8 °F - 23.0 °F 17% 30.13 in 10.0 mi West 11.5 mph 19.6 mph N/A   Unknown
4:15 PM 69.8 °F - 23.0 °F 17% 30.12 in 10.0 mi West 17.3 mph 24.2 mph N/A   Unknown
4:35 PM 69.8 °F - 23.0 °F 17% 30.11 in 10.0 mi West 12.7 mph - N/A   Unknown
4:55 PM 69.8 °F - 23.0 °F 17% 30.10 in 10.0 mi West 13.8 mph - N/A   Unknown
5:15 PM 69.8 °F - 23.0 °F 17% 30.09 in 10.0 mi WSW 8.1 mph - N/A   Unknown
5:35 PM 68.0 °F - 23.0 °F 18% 30.09 in 10.0 mi West 11.5 mph - N/A   Unknown
5:55 PM 68.0 °F - 23.0 °F 18% 30.08 in 10.0 mi West 10.4 mph - N/A   Unknown
6:15 PM 66.2 °F - 24.8 °F 21% 30.07 in 10.0 mi WSW 6.9 mph - N/A   Unknown
6:35 PM 64.4 °F - 26.6 °F 24% 30.07 in 9.0 mi SSW 4.6 mph - N/A   Unknown
6:55 PM 60.8 °F - 26.6 °F 27% 30.07 in 10.0 mi SSW 5.8 mph - N/A   Unknown
7:15 PM 59.0 °F - 28.4 °F 31% 30.07 in 10.0 mi SSW 6.9 mph - N/A   Unknown
7:35 PM 57.2 °F - 28.4 °F 33% 30.07 in 10.0 mi SSW 6.9 mph - N/A   Unknown
7:55 PM 55.4 °F - 28.4 °F 36% 30.07 in 10.0 mi SSW 6.9 mph - N/A   Unknown
8:15 PM 55.4 °F - 28.4 °F 36% 30.07 in 10.0 mi South 8.1 mph - N/A   Unknown
8:35 PM 53.6 °F - 28.4 °F 38% 30.07 in 10.0 mi South 8.1 mph - N/A   Unknown
8:55 PM 51.8 °F - 28.4 °F 41% 30.07 in 10.0 mi South 6.9 mph - N/A   Unknown
9:15 PM 51.8 °F - 28.4 °F 41% 30.06 in 10.0 mi South 5.8 mph - N/A   Unknown
9:35 PM 50.0 °F - 28.4 °F 43% 30.06 in 10.0 mi South 5.8 mph - N/A   Unknown
9:55 PM 50.0 °F - 28.4 °F 43% 30.06 in 10.0 mi South 5.8 mph - N/A   Unknown
10:15 PM 50.0 °F - 28.4 °F 43% 30.06 in 10.0 mi South 5.8 mph - N/A   Unknown
10:35 PM 50.0 °F - 30.2 °F 47% 30.06 in 10.0 mi South 5.8 mph - N/A   Unknown
10:55 PM 50.0 °F - 30.2 °F 47% 30.05 in 10.0 mi South 5.8 mph - N/A   Unknown
11:15 PM 48.2 °F - 30.2 °F 50% 30.05 in 10.0 mi South 8.1 mph - N/A   Unknown
11:35 PM 48.2 °F - 30.2 °F 50% 30.04 in 10.0 mi South 10.4 mph - N/A   Unknown
11:55 PM 50.0 °F - 30.2 °F 47% 30.03 in 10.0 mi South 10.4 mph - N/A   Unknown